Data for 08/10/2009

Time Sea-Level Adjusted Pressure Absolute Pressure Temperature Relative Humidity Dew Point   
(mb) (inHg) (mb) (inHg) (C) (F) (%) (C) (F)
00:05 1023 30.21 852 25.16 12.3 54.1 64 5.7 42.3
00:10 1023 30.21 852 25.16 12.2 54 64 5.7 42.3
00:15 1023 30.21 852 25.16 12.3 54.2 63 5.5 41.9
00:20 1023 30.21 852 25.16 12.4 54.3 63 5.5 42
00:25 1023 30.21 852 25.16 12.4 54.3 61 5.1 41.2
00:30 1023 30.21 852 25.16 12.6 54.7 62 5.5 41.9
00:35 1023 30.21 852 25.16 12.2 53.9 65 5.9 42.6
00:40 1023 30.21 852 25.16 11.7 53.1 66 5.6 42.1
00:45 1023 30.21 852 25.16 11.7 53 67 5.7 42.3
00:50 1023 30.21 852 25.16 11.6 52.8 67 5.8 42.4
00:55 1023 30.21 852 25.16 11.5 52.8 67 5.7 42.2
01:00 1023 30.21 852 25.16 11.4 52.6 67 5.7 42.2
01:05 1023 30.21 852 25.16 11.4 52.5 68 5.6 42.1
01:10 1023 30.21 852 25.16 11.4 52.6 65 5.2 41.4
01:15 1023 30.21 852 25.16 11.9 53.4 64 5.3 41.5
01:20 1023 30.21 852 25.16 12 53.6 64 5.5 42
01:25 1023 30.21 852 25.16 12 53.7 63 5.3 41.5
01:30 1023 30.21 852 25.16 12 53.6 63 5.2 41.4
01:35 1023 30.21 852 25.16 12.1 53.8 62 5.2 41.4
01:40 1023 30.21 852 25.16 12.2 53.9 62 5.2 41.3
01:45 1023 30.21 852 25.16 12.2 53.9 62 5.1 41.1
01:50 1023 30.21 852 25.16 12.2 53.9 62 5.1 41.2
01:55 1023 30.21 852 25.16 12 53.7 63 5.2 41.4
02:00 1023 30.21 852 25.16 11.8 53.3 64 5.2 41.4
02:05 1023 30.21 852 25.16 11.8 53.2 63 5 41.1
02:10 1023 30.21 852 25.16 11.8 53.3 63 5.1 41.2
02:15 1023 30.21 852 25.16 11.7 53 64 5.2 41.3
02:20 1023 30.21 852 25.16 11.6 52.9 64 5.1 41.1
02:25 1023 30.21 852 25.16 11.6 52.9 64 5.1 41.1
02:30 1023 30.21 852 25.16 11.6 53 64 5.1 41.2
02:35 1023 30.21 852 25.16 11.5 52.7 64 5.1 41.1
02:40 1023 30.21 852 25.16 11.5 52.8 63 4.8 40.7
02:45 1023 30.21 852 25.16 11.9 53.3 61 4.7 40.5
02:50 1023 30.21 852 25.16 11.9 53.5 62 4.9 40.9
02:55 1023 30.21 852 25.16 11.8 53.2 62 4.9 40.8
03:00 1023 30.21 852 25.16 11.7 53.1 62 4.8 40.7
03:05 1023 30.21 852 25.16 11.8 53.3 62 4.9 40.7
03:10 1023 30.21 852 25.16 11.8 53.2 63 5 40.9
03:15 1023 30.21 852 25.16 11.5 52.8 64 4.9 40.8
03:20 1023 30.21 852 25.16 11.4 52.4 65 5 41
03:25 1023 30.21 852 25.16 11.2 52.1 65 4.9 40.8
03:30 1023 30.21 852 25.16 11.1 52 66 5 40.9
03:35 1023 30.21 852 25.16 11 51.8 66 4.9 40.8
03:40 1023 30.21 852 25.16 10.9 51.7 66 5 40.9
03:45 1023 30.21 852 25.16 10.9 51.6 67 5 41
03:50 1023 30.21 852 25.16 11 51.7 66 4.8 40.6
03:55 1023 30.21 852 25.16 11 51.8 66 4.9 40.8
04:00 1023 30.21 852 25.16 10.9 51.6 67 5 40.9
04:05 1023 30.21 852 25.16 10.7 51.3 68 5 41
04:10 1023 30.21 852 25.16 10.5 50.9 68 4.8 40.7
04:15 1023 30.21 852 25.16 10.7 51.3 66 4.6 40.3
04:20 1023 30.21 852 25.16 11.2 52.1 62 4.3 39.7
04:25 1023 30.21 852 25.16 11.7 53.1 60 4.4 39.9
04:30 1023 30.21 852 25.16 11.9 53.4 60 4.5 40.1
04:35 1023 30.21 852 25.16 11.7 53.1 62 4.6 40.3
04:40 1023 30.21 852 25.16 11.6 52.8 62 4.6 40.4
04:45 1023 30.21 852 25.16 11.3 52.4 64 4.8 40.6
04:50 1023 30.21 852 25.16 11 51.9 66 4.9 40.8
04:55 1023 30.21 852 25.16 10.8 51.5 65 4.7 40.4
05:00 1023 30.21 852 25.16 10.8 51.5 66 4.7 40.5
05:05 1023 30.21 852 25.16 10.8 51.4 65 4.5 40.1
05:10 1023 30.21 852 25.16 11.1 52 62 4.2 39.5
05:15 1023 30.21 852 25.16 11.5 52.6 62 4.6 40.2
05:20 1023 30.21 852 25.16 11.2 52.1 65 5 40.9
05:25 1023 30.21 852 25.16 10.6 51 67 4.8 40.7
05:30 1023 30.21 852 25.16 10.3 50.5 67 4.5 40.1
05:35 1023 30.21 852 25.16 10.7 51.2 65 4.4 39.9
05:40 1023 30.21 852 25.16 10.9 51.5 62 3.9 39.1
05:45 1023 30.21 852 25.16 11.5 52.7 61 4.3 39.8
05:50 1023 30.21 852 25.16 11.5 52.7 61 4.3 39.7
05:55 1023 30.21 852 25.16 11.5 52.8 62 4.5 40.2
06:00 1023 30.21 852 25.16 11.2 52.2 63 4.6 40.3
06:05 1023 30.21 852 25.16 10.8 51.4 65 4.6 40.3
06:10 1023 30.21 852 25.16 10.7 51.3 66 4.6 40.3
06:15 1023 30.21 852 25.16 10.7 51.2 66 4.6 40.3
06:20 1023 30.21 852 25.16 10.9 51.6 63 4.1 39.3
06:25 1023 30.21 852 25.16 11.2 52.2 63 4.5 40
06:30 1023 30.21 852 25.16 11 51.8 65 4.7 40.5
06:35 1023 30.21 852 25.16 10.7 51.2 65 4.5 40.1
06:40 1023 30.21 852 25.16 10.7 51.3 65 4.4 39.9
06:45 1023 30.21 852 25.16 10.8 51.4 65 4.6 40.3
06:50 1023 30.21 852 25.16 10.6 51.2 66 4.5 40.1
06:55 1023 30.21 852 25.16 10.7 51.3 65 4.4 39.9
07:00 1023 30.21 853 25.19 10.8 51.4 65 4.6 40.2
07:05 1023 30.21 853 25.19 10.8 51.5 65 4.6 40.3
07:10 1023 30.21 853 25.19 10.8 51.5 66 4.8 40.6
07:15 1023 30.21 853 25.19 10.9 51.7 65 4.6 40.3
07:20 1023 30.21 853 25.19 11.3 52.3 63 4.6 40.3
07:25 1024 30.24 853 25.19 11.7 53 63 4.9 40.8
07:30 1024 30.24 853 25.19 11.6 52.8 64 5.1 41.1
07:35 1024 30.24 853 25.19 11.5 52.6 64 4.9 40.8
07:40 1024 30.24 853 25.19 11.7 53.1 64 5.1 41.2
07:45 1024 30.24 853 25.19 11.9 53.5 63 5.1 41.2
07:50 1024 30.24 853 25.19 12.2 53.9 62 5.2 41.3
07:55 1024 30.24 853 25.19 12.6 54.8 61 5.4 41.7
08:00 1024 30.24 853 25.19 13.2 55.8 59 5.4 41.7
08:05 1024 30.24 853 25.19 13.4 56.2 60 5.8 42.5
08:10 1024 30.24 853 25.19 13.3 56 61 6.1 42.9
08:15 1024 30.24 853 25.19 13.3 56 61 6 42.8
08:20 1024 30.24 853 25.19 13.6 56.5 58 5.6 42.1
08:25 1024 30.24 853 25.19 14.2 57.6 57 5.9 42.6
08:30 1024 30.24 853 25.19 14.6 58.3 54 5.5 42
08:35 1024 30.24 853 25.19 14.8 58.6 52 5.2 41.4
08:40 1024 30.24 853 25.19 14.9 58.8 52 5.2 41.3
08:45 1024 30.24 853 25.19 15.1 59.2 53 5.6 42.1
08:50 1024 30.24 853 25.19 15.5 59.9 49 4.9 40.8
08:55 1024 30.24 853 25.19 15.7 60.3 50 5.3 41.6
09:00 1024 30.24 853 25.19 16.3 61.3 47 5 41
09:05 1024 30.24 853 25.19 16.6 61.8 46 5.1 41.2
09:10 1024 30.24 853 25.19 17.6 63.7 43 5.1 41.3
09:15 1024 30.24 853 25.19 18.1 64.6 44 5.8 42.4
09:20 1024 30.24 853 25.19 18.1 64.5 45 6.2 43.2
09:25 1024 30.24 853 25.19 18.6 65.4 44 6.2 43.2
09:30 1024 30.24 853 25.19 18.4 65.1 44 6.2 43.2
09:35 1024 30.24 853 25.19 18.4 65.1 42 5.5 42
09:40 1024 30.24 853 25.19 19.1 66.4 42 6.1 43
09:45 1024 30.24 853 25.19 18.8 65.8 42 5.8 42.4
09:50 1024 30.24 853 25.19 19.6 67.2 41 6 42.8
09:55 1024 30.24 853 25.19 20.1 68.2 38 5.7 42.2
10:00 1024 30.24 853 25.19 20.1 68.2 39 5.8 42.4
10:05 1024 30.24 853 25.19 20.6 69 37 5.5 41.9
10:10 1024 30.24 853 25.19 20.1 68.2 41 6.6 43.9
10:15 1024 30.24 853 25.19 18.9 65.9 42 5.9 42.6
10:20 1024 30.24 853 25.19 19.7 67.5 38 5.2 41.3
10:25 1024 30.24 853 25.19 20.6 69.2 36 5.1 41.2
10:30 1024 30.24 853 25.19 21.1 70 35 5.3 41.6
10:35 1024 30.24 853 25.19 21.2 70.2 38 6.6 43.8
10:40 1024 30.24 853 25.19 20.6 69.2 38 6 42.7
10:45 1024 30.24 853 25.19 20 68 36 4.6 40.3
10:50 1024 30.24 853 25.19 20.9 69.6 35 5 41.1
10:55 1024 30.24 853 25.19 21.7 71 34 5.4 41.7
11:00 1024 30.24 853 25.19 21.5 70.6 33 4.8 40.6
11:05 1023 30.21 853 25.19 21.9 71.5 33 5.2 41.4
11:10 1023 30.21 853 25.19 22.7 72.8 32 5.2 41.4
11:15 1023 30.21 853 25.19 22 71.5 36 6.5 43.6
11:20 1024 30.24 853 25.19 21.8 71.3 35 5.8 42.4
11:25 1024 30.24 853 25.19 22.2 71.9 34 5.8 42.4
11:30 1024 30.24 853 25.19 22.1 71.7 34 5.7 42.3
11:35 1024 30.24 853 25.19 21.9 71.4 34 5.5 41.9
11:40 1024 30.24 853 25.19 22.4 72.3 34 5.8 42.4
11:45 1023 30.21 853 25.19 22.9 73.3 33 6.2 43.1
11:50 1023 30.21 853 25.19 22.7 72.8 36 7 44.6
11:55 1023 30.21 853 25.19 21.5 70.7 38 6.9 44.5
12:00 1023 30.21 853 25.19 22.6 72.6 38 7.7 45.8
12:05 1023 30.21 853 25.19 22.4 72.4 38 7.6 45.6
12:10 1023 30.21 853 25.19 22.4 72.3 35 6.5 43.6
12:15 1023 30.21 853 25.19 23.4 74.2 33 6.3 43.4
12:20 1023 30.21 853 25.19 23.9 74.9 34 7.2 44.9
12:25 1023 30.21 852 25.16 24.1 75.3 34 7.3 45.2
12:30 1023 30.21 852 25.16 23.4 74.1 35 7.5 45.4
12:35 1023 30.21 852 25.16 23.7 74.6 31 5.9 42.6
12:40 1023 30.21 852 25.16 23.8 74.9 32 6.5 43.7
12:45 1023 30.21 852 25.16 24.1 75.3 33 7 44.5
12:50 1023 30.21 852 25.16 24.3 75.7 32 6.8 44.2
12:55 1023 30.21 852 25.16 24.3 75.7 31 6.1 43.1
13:00 1023 30.21 852 25.16 24.4 76 29 5.5 42
13:05 1023 30.21 852 25.16 24.9 76.8 26 4.6 40.2
13:10 1023 30.21 852 25.16 25.3 77.5 25 4.2 39.5
13:15 1023 30.21 852 25.16 25.2 77.4 26 4.6 40.3
13:20 1023 30.21 852 25.16 24.8 76.6 26 4.1 39.5
13:25 1023 30.21 852 25.16 24.8 76.7 26 4 39.3
13:30 1023 30.21 852 25.16 25.2 77.3 25 4 39.3
13:35 1023 30.21 852 25.16 25.1 77.1 24 3.1 37.7
13:40 1023 30.21 852 25.16 25.4 77.7 23 2.7 36.9
13:45 1023 30.21 852 25.16 25.7 78.3 23 3.3 38
13:50 1023 30.21 852 25.16 26.4 79.4 22 3.5 38.2
13:55 1022 30.18 852 25.16 26.9 80.3 24 4.9 40.7
14:00 1022 30.18 852 25.16 25.9 78.6 25 4.5 40.1
14:05 1022 30.18 851 25.13 25.7 78.2 24 3.6 38.5
14:10 1022 30.18 851 25.13 25.6 78 22 2.3 36.2
14:15 1022 30.18 851 25.13 25.6 78 19 0.8 33.4
14:20 1022 30.18 851 25.13 25.7 78.3 19 0.7 33.3
14:25 1022 30.18 851 25.13 25.9 78.6 18 0.3 32.5
14:30 1022 30.18 851 25.13 25.4 77.8 19 0.2 32.4
14:35 1022 30.18 851 25.13 25.6 78.1 19 0.6 33.2
14:40 1022 30.18 851 25.13 26.2 79.1 18 0.5 33
14:45 1022 30.18 851 25.13 26.2 79.2 18 0.5 32.9
14:50 1022 30.18 851 25.13 25.8 78.4 24 4.2 39.6
14:55 1022 30.18 851 25.13 26.2 79.1 20 1.4 34.5
15:00 1022 30.18 851 25.13 26.3 79.3 19 1.3 34.4
15:05 1022 30.18 851 25.13 25.7 78.3 19 0.9 33.6
15:10 1022 30.18 851 25.13 26.2 79.1 23 3.5 38.3
15:15 1022 30.18 851 25.13 26.3 79.4 20 2 35.7
15:20 1022 30.18 851 25.13 26.3 79.4 19 1.3 34.4
15:25 1022 30.18 851 25.13 26.5 79.6 18 0.3 32.5
15:30 1022 30.18 851 25.13 26.4 79.5 19 0.9 33.6
15:35 1022 30.18 851 25.13 26.4 79.6 17 -0.1 31.8
15:40 1022 30.18 851 25.13 26.6 80 19 1.6 34.9
15:45 1022 30.18 851 25.13 26.8 80.3 17 0.4 32.6
15:50 1022 30.18 851 25.13 26.7 80 19 1.2 34.2
15:55 1022 30.18 851 25.13 26.8 80.2 18 0.5 32.9
16:00 1022 30.18 851 25.13 26.8 80.2 19 1.5 34.7
16:05 1022 30.18 851 25.13 26.9 80.4 17 0.3 32.5
16:10 1022 30.18 851 25.13 26.8 80.2 20 2.4 36.3
16:15 1022 30.18 851 25.13 26.8 80.3 19 1.3 34.3
16:20 1022 30.18 851 25.13 26.8 80.2 18 0.5 33
16:25 1022 30.18 851 25.13 26.7 80 17 0.3 32.5
16:30 1022 30.18 851 25.13 26.8 80.3 17 0.3 32.6
16:35 1022 30.18 851 25.13 26.9 80.3 17 -0.2 31.6
16:40 1022 30.18 851 25.13 26.7 80.1 17 -0.4 31.4
16:45 1022 30.18 851 25.13 26.7 80.1 17 -0.3 31.5
16:50 1022 30.18 851 25.13 26.7 80.1 17 -0.2 31.6
16:55 1022 30.18 851 25.13 26.9 80.3 16 -0.9 30.4
17:00 1022 30.18 851 25.13 26.9 80.4 17 0.3 32.6
17:05 1022 30.18 851 25.13 26.9 80.4 18 0.9 33.7
17:10 1022 30.18 851 25.13 26.9 80.4 17 -0.1 31.8
17:15 1021 30.15 851 25.13 26.6 79.9 18 0.7 33.2
17:20 1022 30.18 851 25.13 26.6 79.9 18 0.4 32.8
17:25 1022 30.18 851 25.13 27 80.6 18 0.9 33.6
17:30 1021 30.15 851 25.13 27 80.6 18 1.2 34.2
17:35 1021 30.15 851 25.13 27 80.5 18 1.2 34.2
17:40 1021 30.15 851 25.13 26.8 80.3 18 0.7 33.2
17:45 1021 30.15 851 25.13 26.8 80.3 18 0.8 33.4
17:50 1021 30.15 851 25.13 26.7 80.1 18 0.8 33.4
17:55 1021 30.15 851 25.13 26.8 80.2 18 0.6 33.1
18:00 1021 30.15 851 25.13 26.7 80.1 18 0.7 33.2
18:05 1021 30.15 851 25.13 26.9 80.3 18 0.8 33.5
18:10 1021 30.15 851 25.13 26.8 80.2 19 1.6 34.9
18:15 1021 30.15 851 25.13 26.7 80.1 19 1.5 34.7
18:20 1021 30.15 851 25.13 26.9 80.4 20 2.1 35.7
18:25 1021 30.15 851 25.13 26.6 79.8 20 2.3 36.1
18:30 1021 30.15 851 25.13 26.4 79.5 20 1.8 35.3
18:35 1021 30.15 851 25.13 26.3 79.4 19 1.3 34.4
18:40 1021 30.15 851 25.13 26.3 79.4 21 2.7 36.8
18:45 1021 30.15 851 25.13 26.3 79.3 22 2.9 37.2
18:50 1021 30.15 851 25.13 26.2 79.1 22 2.8 37.1
18:55 1021 30.15 851 25.13 25.7 78.3 22 3 37.4
19:00 1021 30.15 851 25.13 25.4 77.8 23 3.1 37.7
19:05 1021 30.15 851 25.13 25.4 77.6 23 2.7 36.9
19:10 1021 30.15 851 25.13 25.2 77.4 23 2.7 36.9
19:15 1021 30.15 851 25.13 25 77.1 24 3.1 37.5
19:20 1021 30.15 851 25.13 24.9 76.9 24 3 37.4
19:25 1021 30.15 851 25.13 24.8 76.6 23 2.7 36.9
19:30 1021 30.15 851 25.13 24.6 76.3 23 2.6 36.7
19:35 1021 30.15 851 25.13 24.6 76.2 24 3 37.4
19:40 1021 30.15 851 25.13 24.5 76 24 2.6 36.7
19:45 1021 30.15 851 25.13 24.4 75.8 24 2.6 36.6
19:50 1021 30.15 851 25.13 24.3 75.7 24 2.9 37.2
19:55 1021 30.15 851 25.13 24.1 75.3 26 3.4 38.2
20:00 1021 30.15 851 25.13 23.7 74.7 27 3.8 38.8
20:05 1021 30.15 851 25.13 23.4 74 28 3.8 38.9
20:10 1021 30.15 851 25.13 23 73.4 28 3.8 38.9
20:15 1021 30.15 851 25.13 22.8 73 30 4.6 40.3
20:20 1021 30.15 851 25.13 22.2 71.9 31 4.2 39.6
20:25 1021 30.15 851 25.13 21.9 71.5 31 4.4 39.9
20:30 1021 30.15 851 25.13 22 71.6 31 4.4 40
20:35 1022 30.18 851 25.13 21.5 70.7 34 5.1 41.3
20:40 1022 30.18 851 25.13 20.9 69.7 35 5.1 41.1
20:45 1022 30.18 851 25.13 20.5 69 38 5.9 42.6
20:50 1022 30.18 851 25.13 20.3 68.5 36 4.8 40.6
20:55 1022 30.18 851 25.13 20.2 68.3 37 5 41.1
21:00 1022 30.18 851 25.13 20.2 68.3 36 4.7 40.5
21:05 1022 30.18 851 25.13 20.2 68.3 35 4.4 39.9
21:10 1022 30.18 851 25.13 20.1 68.1 37 5.1 41.3
21:15 1022 30.18 851 25.13 19.6 67.3 39 5.3 41.5
21:20 1022 30.18 851 25.13 19.3 66.7 39 5 41
21:25 1022 30.18 851 25.13 19.1 66.3 38 4.5 40.1
21:30 1022 30.18 851 25.13 18.9 66.1 40 5.1 41.2
21:35 1022 30.18 851 25.13 18.9 65.9 40 5.2 41.4
21:40 1022 30.18 851 25.13 18.8 65.9 41 5.5 41.9
21:45 1022 30.18 851 25.13 18.8 65.8 42 5.8 42.5
21:50 1022 30.18 851 25.13 18.7 65.7 39 4.8 40.6
21:55 1022 30.18 851 25.13 18.7 65.7 39 4.7 40.5
22:00 1022 30.18 851 25.13 18.7 65.6 42 5.7 42.2
22:05 1022 30.18 851 25.13 18.5 65.3 40 5 40.9
22:10 1022 30.18 851 25.13 18.1 64.6 43 5.4 41.7
22:15 1022 30.18 851 25.13 17.8 64 44 5.4 41.7
22:20 1022 30.18 852 25.16 17.4 63.2 45 5.4 41.7
22:25 1022 30.18 852 25.16 17.2 63 44 5.1 41.2
22:30 1022 30.18 852 25.16 17.3 63.2 43 4.8 40.6
22:35 1022 30.18 852 25.16 17.5 63.4 42 4.4 39.9
22:40 1022 30.18 852 25.16 17.6 63.6 41 4.4 39.9
22:45 1022 30.18 852 25.16 17.7 63.9 40 4.1 39.4
22:50 1023 30.21 852 25.16 17.8 64 41 4.4 39.9
22:55 1023 30.21 852 25.16 17.7 63.8 41 4.3 39.8
23:00 1023 30.21 852 25.16 17.6 63.7 43 5 41
23:05 1023 30.21 852 25.16 17.4 63.4 42 4.4 39.9
23:10 1023 30.21 852 25.16 17.4 63.2 42 4.4 39.9
23:15 1023 30.21 852 25.16 17.3 63.2 42 4.4 39.9
23:20 1023 30.21 852 25.16 17.3 63.2 42 4.3 39.8
23:25 1023 30.21 852 25.16 17.3 63.1 42 4.5 40
23:30 1023 30.21 852 25.16 17.2 62.9 42 4.4 39.9
23:35 1023 30.21 852 25.16 17.2 63 42 4.4 39.9
23:40 1023 30.21 852 25.16 17.3 63.1 42 4.3 39.7
23:45 1023 30.21 852 25.16 17.5 63.4 41 4.2 39.6
23:50 1023 30.21 852 25.16 17.6 63.7 41 4.3 39.7
23:55 1023 30.21 852 25.16 17.5 63.6 41 4.3 39.8
24:00 1023 30.21 852 25.16 17.7 63.8 40 4 39.1